Date,TemperatureHighF,TemperatureAvgF,TemperatureLowF,DewpointHighF,DewpointAvgF,DewpointLowF,HumidityHigh,HumidityAvg,HumidityLow,PressureMaxIn,PressureMinIn,WindSpeedMaxMPH,WindSpeedAvgMPH,GustSpeedMaxMPH,PrecipitationSumIn
2013-9-1,81.5,77.0,71.4,80.9,76.4,70.8,98,98,98,29.80,29.72,0,0,0,2.30
2013-9-2,80.6,75.6,71.4,80.0,75.0,70.8,98,98,98,29.74,29.64,0,0,0,1.08
2013-9-3,79.3,71.7,64.6,78.7,71.1,64.0,98,98,98,29.83,29.64,3,0,0,0.15
2013-9-4,82.4,70.4,60.6,81.8,69.8,60.1,98,98,98,29.94,29.82,5,1,0,0.00
2013-9-5,76.5,68.1,57.2,75.9,67.5,56.6,98,98,98,30.10,29.85,7,1,0,0.00
2013-9-6,72.0,62.0,55.0,71.4,61.4,54.5,98,98,98,30.20,30.08,4,0,0,0.00
2013-9-7,79.7,64.8,48.4,79.1,64.2,47.8,98,98,98,30.08,29.83,3,0,0,0.00
2013-9-8,80.4,70.4,60.3,79.8,69.8,59.7,98,98,98,30.02,29.76,7,1,0,0.00
2013-9-9,72.9,64.4,60.3,72.3,63.8,59.7,98,98,98,30.19,30.02,2,0,0,0.00
2013-9-10,85.1,75.0,66.2,84.5,74.4,65.6,98,98,98,30.10,29.98,6,1,0,0.09
2013-9-11,94.6,85.2,74.1,94.0,84.6,73.5,98,98,98,30.05,29.89,5,0,0,0.00
2013-9-12,87.4,76.2,68.7,86.8,75.6,68.1,98,98,98,29.92,29.61,10,0,0,2.33
2013-9-13,75.6,67.3,58.5,75.0,66.7,57.9,98,98,98,29.79,29.56,8,1,0,0.09
2013-9-14,65.5,58.0,50.5,64.9,57.4,50.0,98,98,98,30.07,29.79,7,1,0,0.00
2013-9-15,71.1,57.7,45.1,70.5,57.1,44.6,98,98,98,30.16,30.02,3,0,0,0.00
2013-9-16,72.1,61.8,55.0,71.5,61.2,54.5,98,98,98,30.20,29.97,5,0,0,0.00
2013-9-17,64.4,55.1,47.7,63.8,54.5,47.1,98,98,98,30.39,30.21,7,1,0,0.00
2013-9-18,72.0,56.8,42.6,71.4,56.2,42.1,98,98,98,30.30,30.12,3,0,0,0.00
2013-9-19,76.3,60.2,45.1,75.7,59.6,44.6,98,98,98,30.14,29.99,3,0,0,0.00
2013-9-20,79.9,62.9,48.7,79.3,62.4,48.2,98,98,98,30.04,29.92,3,0,0,0.00
2013-9-21,77.4,64.9,51.8,76.7,64.3,51.3,98,98,98,29.96,29.59,4,0,0,1.65
2013-9-22,68.5,61.2,53.8,68.0,60.6,53.2,98,98,98,29.86,29.57,9,1,0,1.64
2013-9-23,64.8,55.2,45.5,64.2,54.7,45.0,98,98,98,29.99,29.85,5,1,0,0.00
2013-9-24,71.2,55.6,41.9,70.6,55.0,41.4,98,98,98,30.00,29.80,6,0,0,0.00
2013-9-25,72.3,57.0,43.7,71.7,56.5,43.2,98,98,98,29.90,29.81,5,0,0,0.00
2013-9-26,70.7,59.4,48.6,70.1,58.8,48.0,98,98,98,30.04,29.88,2,0,0,0.00
2013-9-27,68.5,58.8,49.1,68.0,58.2,48.6,98,98,98,30.21,30.04,3,0,0,0.00
2013-9-28,73.6,63.1,55.8,73.0,62.5,55.2,98,98,98,30.23,30.19,0,0,0,0.00
2013-9-29,72.9,59.1,48.4,72.3,58.5,47.8,98,98,98,30.18,30.02,1,0,0,0.00
2013-9-30,73.9,58.7,47.1,73.3,58.2,46.6,98,98,98,30.03,29.90,3,0,0,0.00